Time;durP1;ratioP1;P1;durP2;ratioP2;P2;SDS_P1;SDS_P2;PMS_P1;PMS_P2;Temp;Humidity;BMP_temperature;BMP_pressure;BME280_temperature;BME280_humidity;BME280_pressure;Samples;Min_cycle;Max_cycle;Signal;HPM_P1;HPM_P2
2022/07/04 00:00:08;;;;;;;6.83;3.80;;;;;;;12.92;87.77;101889.94;4916108;29;20047;-80
2022/07/04 00:02:34;;;;;;;5.73;3.80;;;;;;;12.91;87.46;101896.41;4917346;29;20050;-81
2022/07/04 00:05:00;;;;;;;5.07;3.27;;;;;;;12.88;87.48;101894.09;4915360;29;20042;-79
2022/07/04 00:07:25;;;;;;;7.50;3.87;;;;;;;12.87;86.65;101899.75;4916461;29;20068;-80
2022/07/04 00:09:51;;;;;;;6.07;3.77;;;;;;;12.83;86.65;101875.63;4914977;29;20046;-79
2022/07/04 00:12:16;;;;;;;4.73;3.73;;;;;;;12.90;86.88;101891.16;4917079;29;20138;-79
2022/07/04 00:14:42;;;;;;;5.80;3.60;;;;;;;12.90;86.84;101896.59;4916743;29;21315;-79
2022/07/04 00:17:07;;;;;;;5.23;3.50;;;;;;;12.83;86.99;101880.25;4916690;29;20043;-81
2022/07/04 00:19:33;;;;;;;4.87;3.50;;;;;;;12.75;87.40;101891.28;4916903;29;20075;-80
2022/07/04 00:21:58;;;;;;;6.87;3.80;;;;;;;12.79;88.08;101887.97;4916481;29;20043;-80
2022/07/04 00:24:23;;;;;;;5.17;3.80;;;;;;;12.81;88.00;101880.44;4916627;29;20496;-80
2022/07/04 00:26:49;;;;;;;4.97;3.90;;;;;;;12.77;87.71;101881.03;4917108;29;20052;-80
2022/07/04 00:29:14;;;;;;;5.67;3.80;;;;;;;12.74;86.99;101876.88;4916721;29;20042;-80
2022/07/04 00:31:40;;;;;;;6.93;3.70;;;;;;;12.73;87.37;101887.91;4916505;29;20126;-80
2022/07/04 00:34:05;;;;;;;10.20;4.27;;;;;;;12.74;87.33;101876.00;4915800;29;20154;-79
2022/07/04 00:36:31;;;;;;;9.07;3.90;;;;;;;12.63;87.26;101864.69;4916711;29;20044;-80
2022/07/04 00:38:57;;;;;;;6.17;4.10;;;;;;;12.68;87.64;101876.84;4916446;29;20063;-80
2022/07/04 00:41:22;;;;;;;5.70;4.27;;;;;;;12.68;88.31;101882.28;4916665;29;20047;-80
2022/07/04 00:44:05;;;;;;;8.23;4.40;;;;;;;12.64;88.32;101877.22;4915883;29;20036;-81
2022/07/04 00:46:30;;;;;;;7.57;4.57;;;;;;;12.60;88.34;101884.09;4916074;29;20473;-80
2022/07/04 00:48:56;;;;;;;7.03;4.60;;;;;;;12.58;88.26;101878.03;4927603;29;20098;-80
2022/07/04 00:51:22;;;;;;;8.20;4.80;;;;;;;12.58;88.60;101875.31;4916486;29;20677;-79
2022/07/04 00:53:49;;;;;;;7.87;5.00;;;;;;;12.57;88.67;101878.22;4916868;29;20737;-79
2022/07/04 00:56:15;;;;;;;7.47;4.80;;;;;;;12.52;89.06;101878.81;4913049;29;20052;-81
2022/07/04 00:58:40;;;;;;;7.67;4.40;;;;;;;12.52;89.44;101881.53;4916946;29;20036;-81
2022/07/04 01:01:05;;;;;;;11.90;6.30;;;;;;;12.55;89.33;101878.44;4916416;29;20031;-82
2022/07/04 01:03:31;;;;;;;8.97;5.87;;;;;;;12.48;89.95;101870.25;4915636;29;20035;-81
2022/07/04 01:05:59;;;;;;;12.67;6.60;;;;;;;12.47;90.04;101881.28;4916592;29;20035;-81
2022/07/04 01:08:25;;;;;;;12.13;7.00;;;;;;;12.50;89.90;101870.03;4928233;29;20090;-81
2022/07/04 01:10:51;;;;;;;14.03;7.30;;;;;;;12.48;90.40;101880.25;4933305;28;20109;-81
2022/07/04 01:13:23;;;;;;;12.17;7.00;;;;;;;12.47;90.78;101874.00;4935635;29;20047;-81
2022/07/04 01:15:50;;;;;;;15.33;7.90;;;;;;;12.44;90.43;101863.53;4919377;29;20399;-80
2022/07/04 01:18:16;;;;;;;11.20;6.87;;;;;;;12.46;90.39;101863.31;4934390;29;20023;-83
2022/07/04 01:20:42;;;;;;;10.37;6.67;;;;;;;12.49;89.80;101862.91;4935072;29;20082;-81
2022/07/04 01:23:07;;;;;;;19.00;9.13;;;;;;;12.48;89.10;101850.34;4935262;29;20039;-82
2022/07/04 01:25:32;;;;;;;19.43;10.03;;;;;;;12.31;88.85;101844.41;4932742;29;20135;-81
2022/07/04 01:28:02;;;;;;;20.07;9.70;;;;;;;12.30;88.84;101857.13;4935346;29;20130;-82
2022/07/04 01:30:29;;;;;;;13.40;8.03;;;;;;;12.24;89.08;101852.50;4934984;29;20047;-80
2022/07/04 01:32:55;;;;;;;15.00;8.23;;;;;;;12.23;89.18;101842.66;4934368;29;20035;-82
2022/07/04 01:35:21;;;;;;;17.33;9.43;;;;;;;12.14;88.59;101842.00;4935205;29;20487;-81
2022/07/04 01:37:47;;;;;;;16.10;8.93;;;;;;;12.09;88.96;101847.19;4935389;29;20118;-81
2022/07/04 01:40:13;;;;;;;20.40;9.83;;;;;;;12.10;89.25;101848.88;4933810;29;21826;-81
2022/07/04 01:42:40;;;;;;;19.70;9.90;;;;;;;12.08;89.94;101850.09;4935542;29;20043;-81
2022/07/04 01:45:07;;;;;;;22.23;11.53;;;;;;;12.09;90.09;101846.31;4934809;29;20027;-81
2022/07/04 01:47:33;;;;;;;22.10;12.27;;;;;;;12.05;89.92;101848.59;4934648;29;20095;-82
2022/07/04 01:49:59;;;;;;;21.70;11.67;;;;;;;12.08;89.82;101847.38;4932674;29;20032;-81
2022/07/04 01:52:24;;;;;;;22.40;12.97;;;;;;;12.05;90.23;101845.03;4934939;29;20038;-81
2022/07/04 01:54:49;;;;;;;22.10;12.10;;;;;;;12.08;90.57;101844.66;4935210;29;20400;-80
2022/07/04 01:57:15;;;;;;;20.10;10.90;;;;;;;12.06;90.50;101844.00;4935139;29;20032;-82
2022/07/04 02:02:24;;;;;;;21.85;11.40;;;;;;;12.12;90.05;101835.91;4934833;29;20071;-81
2022/07/04 02:04:50;;;;;;;20.27;10.93;;;;;;;12.09;89.82;101830.03;4916878;29;20036;-84
2022/07/04 02:07:16;;;;;;;19.87;11.07;;;;;;;12.08;89.85;101840.06;4934428;29;20681;-81
2022/07/04 02:09:41;;;;;;;17.30;9.43;;;;;;;12.11;89.74;101830.69;4934518;29;20043;-80
2022/07/04 02:14:51;;;;;;;16.15;8.90;;;;;;;12.01;89.20;101832.88;4935126;29;20070;-81
2022/07/04 02:17:16;;;;;;;12.77;7.00;;;;;;;11.96;89.33;101831.59;4918397;29;20051;-81
2022/07/04 02:19:41;;;;;;;9.73;6.60;;;;;;;11.92;89.09;101819.41;4933905;29;21363;-80
2022/07/04 02:22:07;;;;;;;12.13;6.50;;;;;;;11.96;89.04;101820.75;4920748;29;20039;-80
2022/07/04 02:24:33;;;;;;;10.93;7.10;;;;;;;11.97;89.18;101832.47;4922660;29;20031;-80
2022/07/04 02:26:58;;;;;;;9.37;6.77;;;;;;;11.97;89.49;101836.00;4938293;29;21735;-80
2022/07/04 02:29:24;;;;;;;13.13;6.50;;;;;;;11.95;89.24;101827.22;4937871;29;20416;-81
2022/07/04 02:31:49;;;;;;;10.63;6.37;;;;;;;11.95;89.39;101831.81;4938152;29;20047;-80
2022/07/04 02:34:14;;;;;;;12.23;6.73;;;;;;;11.95;89.36;101832.66;4937449;29;20074;-81
2022/07/04 02:36:40;;;;;;;9.83;6.80;;;;;;;11.91;89.60;101830.47;4937160;29;20644;-81
2022/07/04 02:39:05;;;;;;;8.80;6.43;;;;;;;11.93;89.49;101842.84;4920810;29;20078;-80
2022/07/04 02:41:32;;;;;;;9.90;6.20;;;;;;;11.86;89.62;101833.81;4938060;29;20031;-80
2022/07/04 02:43:57;;;;;;;8.10;6.97;;;;;;;11.90;89.64;101837.81;4920655;29;20439;-81
2022/07/04 02:46:23;;;;;;;13.93;8.10;;;;;;;11.88;89.73;101839.88;4937551;29;20047;-80
2022/07/04 02:48:49;;;;;;;10.43;6.77;;;;;;;11.76;89.91;101836.84;4937995;29;20039;-82
2022/07/04 02:51:14;;;;;;;11.13;7.17;;;;;;;11.82;90.71;101843.38;4936859;29;20032;-82
2022/07/04 02:53:39;;;;;;;18.30;9.30;;;;;;;11.76;89.99;101838.72;4937517;29;20167;-80
2022/07/04 02:56:05;;;;;;;15.10;8.87;;;;;;;11.78;90.27;101844.81;4921107;29;20039;-81
2022/07/04 02:58:32;;;;;;;15.93;8.93;;;;;;;11.77;90.97;101846.66;4919832;29;20043;-81
2022/07/04 03:00:58;;;;;;;13.80;8.20;;;;;;;11.75;91.11;101847.88;4935989;29;20432;-80
2022/07/04 03:03:23;;;;;;;12.27;7.83;;;;;;;11.77;90.92;101843.13;4937348;29;20687;-80
2022/07/04 03:05:48;;;;;;;11.53;7.33;;;;;;;11.80;90.98;101848.16;4935997;29;20067;-81
2022/07/04 03:08:14;;;;;;;11.43;7.60;;;;;;;11.69;90.70;101840.53;4937102;29;20059;-81
2022/07/04 03:10:39;;;;;;;12.13;7.37;;;;;;;11.72;90.71;101846.44;4937310;29;20067;-81
2022/07/04 03:13:04;;;;;;;10.20;6.80;;;;;;;11.78;90.15;101861.09;4920309;29;20169;-81
2022/07/04 03:15:31;;;;;;;18.50;9.37;;;;;;;11.80;89.71;101861.72;4920738;29;20760;-80
2022/07/04 03:17:56;;;;;;;23.33;12.47;;;;;;;11.83;90.08;101858.59;4920113;29;20047;-80
2022/07/04 03:20:21;;;;;;;20.93;11.80;;;;;;;11.82;89.94;101859.66;4936920;29;20032;-80
2022/07/04 03:22:46;;;;;;;20.80;10.90;;;;;;;11.92;90.04;101867.47;4918732;29;20054;-80
2022/07/04 03:25:12;;;;;;;17.07;9.07;;;;;;;11.97;90.03;101870.47;4918287;29;20040;-80
2022/07/04 03:27:37;;;;;;;15.00;9.10;;;;;;;11.99;89.54;101866.53;4936787;29;20043;-80
2022/07/04 03:30:03;;;;;;;21.13;10.77;;;;;;;11.99;89.24;101858.38;4937041;29;20761;-81
2022/07/04 03:32:28;;;;;;;20.23;11.80;;;;;;;12.04;89.49;101868.66;4936609;28;20031;-79
2022/07/04 03:34:53;;;;;;;19.73;10.90;;;;;;;12.05;89.32;101866.75;4936070;29;20548;-81
2022/07/04 03:37:19;;;;;;;20.57;10.20;;;;;;;12.01;89.25;101868.19;4937662;29;20576;-81
2022/07/04 03:39:44;;;;;;;19.70;10.13;;;;;;;12.04;89.09;101870.53;4936984;29;20106;-79
2022/07/04 03:42:09;;;;;;;20.73;10.70;;;;;;;12.10;89.14;101878.75;4936284;29;20050;-79
2022/07/04 03:44:35;;;;;;;19.83;10.70;;;;;;;12.08;88.87;101875.38;4937201;29;20050;-79
2022/07/04 03:47:01;;;;;;;20.20;10.30;;;;;;;12.08;89.35;101871.81;4937001;29;20044;-79
2022/07/04 03:49:27;;;;;;;21.10;9.73;;;;;;;12.11;89.54;101885.84;4935744;29;20031;-81
2022/07/04 03:51:52;;;;;;;16.33;8.40;;;;;;;12.12;89.55;101892.97;4936447;29;20047;-80
2022/07/04 03:54:17;;;;;;;11.80;7.00;;;;;;;12.13;89.74;101901.94;4920270;29;20174;-79
2022/07/04 03:56:43;;;;;;;15.43;7.10;;;;;;;12.13;89.52;101901.94;4936986;29;20079;-80
2022/07/04 03:59:08;;;;;;;11.97;7.37;;;;;;;12.13;90.10;101907.38;4920312;29;20047;-79
2022/07/04 04:01:33;;;;;;;12.70;7.03;;;;;;;12.12;89.94;101905.72;4936387;29;20551;-79
2022/07/04 04:06:43;;;;;;;12.65;7.07;;;;;;;12.19;90.44;101911.19;4935931;29;20081;-79
2022/07/04 04:09:13;;;;;;;13.47;7.80;;;;;;;12.19;90.75;101911.19;4904165;29;20063;-80
2022/07/04 04:11:38;;;;;;;11.27;7.53;;;;;;;12.23;90.69;101910.59;4936020;29;20574;-81
2022/07/04 04:14:04;;;;;;;14.33;8.97;;;;;;;12.26;90.81;101912.09;4936262;29;20539;-81
2022/07/04 04:16:29;;;;;;;21.30;10.17;;;;;;;12.29;91.06;101907.09;4935412;29;20117;-81
2022/07/04 04:18:54;;;;;;;23.30;11.70;;;;;;;12.32;90.92;101901.28;4917601;29;20066;-81
2022/07/04 04:21:20;;;;;;;19.67;10.40;;;;;;;12.37;91.38;101900.66;4935992;29;20074;-81
2022/07/04 04:23:45;;;;;;;15.63;8.30;;;;;;;12.42;91.32;101909.06;4936289;29;20119;-79
2022/07/04 04:26:11;;;;;;;14.10;7.20;;;;;;;12.48;91.56;101907.44;4935805;29;20035;-81
2022/07/04 04:28:36;;;;;;;16.50;6.90;;;;;;;12.55;91.34;101916.50;4936159;29;20116;-81
2022/07/04 04:31:01;;;;;;;12.47;8.20;;;;;;;12.58;90.89;101926.09;4935376;29;20039;-81
2022/07/04 04:33:27;;;;;;;16.43;9.00;;;;;;;12.63;90.88;101918.19;4936159;29;20623;-80
2022/07/04 04:35:53;;;;;;;18.37;9.00;;;;;;;12.51;90.21;101888.00;4935407;29;20502;-79
2022/07/04 04:38:19;;;;;;;17.10;8.70;;;;;;;12.58;90.28;101899.78;4917819;29;20039;-81
2022/07/04 04:40:44;;;;;;;16.27;8.90;;;;;;;12.74;90.35;101922.25;4936505;29;20125;-80
2022/07/04 04:43:09;;;;;;;13.97;7.57;;;;;;;12.77;90.07;101930.84;4935114;29;20119;-81
2022/07/04 04:45:35;;;;;;;13.57;6.80;;;;;;;12.80;90.20;101924.19;4934965;28;20043;-81
2022/07/04 04:48:00;;;;;;;12.50;7.40;;;;;;;12.81;89.95;101920.38;4935973;29;20480;-80
2022/07/04 04:50:26;;;;;;;13.03;7.03;;;;;;;12.87;90.58;101922.31;4919942;29;20107;-80
2022/07/04 04:52:51;;;;;;;13.73;7.70;;;;;;;12.88;90.55;101924.00;4921912;29;20038;-81
2022/07/04 04:55:16;;;;;;;13.17;7.40;;;;;;;12.75;90.03;101911.16;4918344;29;20166;-82
2022/07/04 04:57:42;;;;;;;10.13;7.23;;;;;;;12.89;90.74;101925.69;4935488;29;20579;-81
2022/07/04 05:00:08;;;;;;;11.67;7.50;;;;;;;12.89;90.17;101914.81;4935664;29;20896;-80
2022/07/04 05:02:33;;;;;;;10.90;7.60;;;;;;;12.90;89.71;101911.03;4935071;29;20527;-80
2022/07/04 05:04:59;;;;;;;11.17;7.53;;;;;;;12.93;90.19;101905.22;4935215;29;20054;-81
2022/07/04 05:07:24;;;;;;;13.80;7.20;;;;;;;12.97;90.03;101911.06;4934199;29;20063;-80
2022/07/04 05:09:49;;;;;;;12.93;7.17;;;;;;;13.04;89.89;101913.81;4934234;29;20043;-80
2022/07/04 05:12:16;;;;;;;12.43;6.93;;;;;;;13.07;89.85;101903.38;4918693;29;20536;-83
2022/07/04 05:14:42;;;;;;;10.77;6.97;;;;;;;13.08;89.45;101906.94;4919188;29;20039;-81
2022/07/04 05:17:07;;;;;;;12.03;7.10;;;;;;;13.10;89.42;101913.03;4935112;29;20525;-82
2022/07/04 05:19:33;;;;;;;11.40;6.33;;;;;;;13.12;88.90;101913.66;4934554;29;20050;-82
2022/07/04 05:21:58;;;;;;;13.00;7.10;;;;;;;13.17;89.19;101906.56;4934903;29;20550;-81
2022/07/04 05:24:24;;;;;;;14.60;6.50;;;;;;;13.27;89.18;101902.63;4935599;29;20040;-83
2022/07/04 05:26:49;;;;;;;16.23;7.70;;;;;;;13.29;88.90;101909.53;4918953;29;20086;-81
2022/07/04 05:29:15;;;;;;;17.27;7.03;;;;;;;13.37;89.15;101918.59;4934667;29;20388;-81
2022/07/04 05:31:40;;;;;;;12.60;6.17;;;;;;;13.38;88.40;101909.38;4935561;29;20039;-83
2022/07/04 05:34:06;;;;;;;13.20;7.13;;;;;;;13.43;88.38;101915.06;4917071;29;20042;-82
2022/07/04 05:36:31;;;;;;;10.37;6.50;;;;;;;13.48;88.04;101927.00;4935939;29;20048;-83
2022/07/04 05:38:57;;;;;;;12.03;6.40;;;;;;;13.53;88.30;101928.28;4935261;29;20147;-82
2022/07/04 05:41:23;;;;;;;14.97;7.60;;;;;;;13.58;87.84;101926.63;4919157;29;20556;-81
2022/07/04 05:43:49;;;;;;;13.83;8.17;;;;;;;13.59;88.99;101913.84;4934205;29;21100;-80
2022/07/04 05:46:14;;;;;;;11.50;6.40;;;;;;;13.78;88.01;101936.72;4935233;29;20035;-80
2022/07/04 05:48:40;;;;;;;12.23;7.10;;;;;;;13.83;88.09;101926.88;4935435;29;20490;-81
2022/07/04 05:51:05;;;;;;;13.53;6.70;;;;;;;13.94;88.35;101930.03;4899691;29;20051;-80
2022/07/04 05:53:31;;;;;;;11.07;6.60;;;;;;;14.01;87.85;101934.44;4916953;29;20073;-80
2022/07/04 05:55:56;;;;;;;12.63;6.50;;;;;;;14.14;87.84;101930.06;4920409;29;20645;-81
2022/07/04 05:58:22;;;;;;;10.80;6.10;;;;;;;14.24;87.39;101929.63;4938099;29;20118;-81
2022/07/04 06:00:47;;;;;;;10.80;6.00;;;;;;;14.32;86.66;101926.69;4939306;29;20039;-80
2022/07/04 06:03:12;;;;;;;10.50;5.53;;;;;;;14.46;85.64;101944.72;4937996;29;20982;-80
2022/07/04 06:05:38;;;;;;;10.70;5.70;;;;;;;14.54;86.34;101935.50;4938487;29;20767;-80
2022/07/04 06:08:04;;;;;;;14.20;5.60;;;;;;;14.67;85.77;101951.03;4937914;29;20379;-82
2022/07/04 06:10:29;;;;;;;8.57;5.13;;;;;;;14.64;85.01;101924.19;4939262;29;20039;-81
2022/07/04 06:12:55;;;;;;;10.57;5.50;;;;;;;14.84;84.79;101940.50;4937656;29;20624;-81
2022/07/04 06:15:20;;;;;;;12.37;5.30;;;;;;;14.98;84.26;101936.69;4938652;29;20035;-81
2022/07/04 06:17:45;;;;;;;9.97;5.70;;;;;;;15.12;84.78;101955.75;4938640;29;20047;-81
2022/07/04 06:20:11;;;;;;;9.97;5.50;;;;;;;15.09;83.42;101931.63;4938099;29;20047;-81
2022/07/04 06:22:41;;;;;;;10.17;5.23;;;;;;;15.31;82.79;101956.72;4921257;29;20027;-80
2022/07/04 06:25:10;;;;;;;11.17;5.30;;;;;;;15.36;81.97;101949.56;4938232;29;20044;-82
2022/07/04 06:27:35;;;;;;;11.57;5.20;;;;;;;15.46;82.01;101945.53;4938222;29;20039;-79
2022/07/04 06:30:01;;;;;;;9.53;5.20;;;;;;;15.52;80.26;101941.94;4937956;29;20085;-79
2022/07/04 06:32:26;;;;;;;8.27;5.20;;;;;;;15.61;81.13;101934.31;4937488;29;20155;-80
2022/07/04 06:37:35;;;;;;;9.55;4.90;;;;;;;15.77;78.64;101928.31;4937603;29;20527;-80
2022/07/04 06:40:01;;;;;;;9.43;5.00;;;;;;;15.92;79.10;101935.41;4937698;29;20154;-79
2022/07/04 06:42:26;;;;;;;9.03;4.70;;;;;;;16.01;77.51;101932.19;4937362;29;20075;-80
2022/07/04 06:44:51;;;;;;;10.80;5.20;;;;;;;16.14;76.50;101934.00;4938339;29;20555;-81
2022/07/04 06:47:17;;;;;;;8.13;4.90;;;;;;;16.31;76.45;101939.72;4937308;29;20129;-81
2022/07/04 06:49:42;;;;;;;11.17;5.00;;;;;;;16.39;75.40;101949.56;4937890;29;20119;-82
2022/07/04 06:52:07;;;;;;;8.20;4.73;;;;;;;16.48;76.21;101945.50;4937749;29;20480;-81
2022/07/04 06:54:33;;;;;;;8.67;4.70;;;;;;;16.44;74.84;101936.06;4918254;29;20046;-81
2022/07/04 06:56:58;;;;;;;9.63;4.60;;;;;;;16.63;74.28;101945.13;4932638;29;20043;-82
2022/07/04 06:59:24;;;;;;;9.87;4.70;;;;;;;16.60;75.63;101950.22;4932760;29;20035;-83
2022/07/04 07:01:49;;;;;;;11.23;4.90;;;;;;;16.52;73.18;101943.13;4933883;29;20035;-82
2022/07/04 07:04:14;;;;;;;6.47;4.37;;;;;;;16.66;73.75;101944.69;4933845;29;20035;-83
2022/07/04 07:06:40;;;;;;;9.07;4.53;;;;;;;16.87;74.73;101943.38;4933594;28;20035;-83
2022/07/04 07:09:05;;;;;;;8.77;4.27;;;;;;;17.04;73.90;101931.91;4932613;29;20133;-82
2022/07/04 07:11:31;;;;;;;8.17;4.37;;;;;;;17.07;73.97;101927.84;4934060;29;20648;-81
2022/07/04 07:13:56;;;;;;;8.77;4.43;;;;;;;17.13;71.20;101932.41;4937142;29;20039;-82
2022/07/04 07:16:22;;;;;;;9.07;3.97;;;;;;;17.19;71.48;101936.97;4936941;29;20040;-81
2022/07/04 07:18:49;;;;;;;9.17;3.73;;;;;;;17.24;70.37;101936.28;4937314;29;20046;-81
2022/07/04 07:21:14;;;;;;;7.47;3.93;;;;;;;17.32;70.36;101945.00;4937256;29;20055;-81
2022/07/04 07:23:40;;;;;;;6.47;3.80;;;;;;;17.29;69.30;101930.94;4936866;29;20051;-81
2022/07/04 07:26:06;;;;;;;4.90;3.67;;;;;;;17.32;70.78;101942.25;4937163;29;20066;-81
2022/07/04 07:28:32;;;;;;;9.23;3.77;;;;;;;17.32;69.87;101944.19;4936856;29;20126;-80
2022/07/04 07:30:57;;;;;;;6.23;3.50;;;;;;;17.44;69.83;101947.00;4937212;29;20031;-81
2022/07/04 07:33:22;;;;;;;7.83;3.93;;;;;;;17.52;69.18;101950.22;4937251;29;20120;-80
2022/07/04 07:35:48;;;;;;;7.07;3.57;;;;;;;17.62;70.19;101938.72;4921052;29;20039;-83
2022/07/04 07:38:13;;;;;;;5.80;3.40;;;;;;;17.79;70.28;101954.50;4935900;29;20046;-82
2022/07/04 07:40:38;;;;;;;10.30;3.50;;;;;;;17.79;68.37;101949.00;4937476;29;20043;-81
2022/07/04 07:43:04;;;;;;;10.37;3.50;;;;;;;17.84;69.38;101949.16;4936874;29;20427;-83
2022/07/04 07:45:29;;;;;;;8.87;3.27;;;;;;;17.90;68.01;101940.00;4920484;29;20073;-81
2022/07/04 07:47:54;;;;;;;7.40;3.40;;;;;;;17.89;66.93;101941.88;4936816;29;20126;-81
2022/07/04 07:50:20;;;;;;;7.50;3.47;;;;;;;17.98;69.94;101925.16;4903726;29;20074;-80
2022/07/04 07:52:45;;;;;;;6.23;3.70;;;;;;;18.14;68.16;101926.34;4935605;29;20043;-80
2022/07/04 07:55:10;;;;;;;6.43;3.20;;;;;;;18.21;67.89;101924.38;4920133;29;20105;-81
2022/07/04 07:57:36;;;;;;;6.97;3.20;;;;;;;18.30;67.51;101933.06;4936516;29;20038;-80
2022/07/04 08:00:03;;;;;;;6.80;3.57;;;;;;;18.43;68.63;101932.84;4935692;29;20043;-82
2022/07/04 08:05:12;;;;;;;5.97;2.65;;;;;;;18.52;65.19;101922.31;4936622;29;20584;-83
2022/07/04 08:07:38;;;;;;;4.97;2.53;;;;;;;18.63;65.33;101920.66;4935405;29;20059;-83
2022/07/04 08:10:05;;;;;;;6.83;3.10;;;;;;;18.69;67.17;101926.03;4934657;29;20034;-81
2022/07/04 08:12:30;;;;;;;5.57;2.47;;;;;;;18.84;63.54;101922.78;4935997;29;20398;-81
2022/07/04 08:14:55;;;;;;;8.48;2.50;;;;;;;18.93;63.51;101925.19;4920449;29;20051;-81
2022/07/04 08:17:21;;;;;;;5.20;2.10;;;;;;;19.10;62.31;101919.78;4919517;29;20122;-81
2022/07/04 08:19:47;;;;;;;5.90;2.40;;;;;;;19.28;61.82;101929.75;4936282;28;20039;-81
2022/07/04 08:22:13;;;;;;;5.82;2.30;;;;;;;19.47;62.81;101935.91;4935021;29;20043;-82
2022/07/04 08:24:38;;;;;;;4.32;1.80;;;;;;;19.65;60.36;101935.72;4935902;29;20508;-82
2022/07/04 08:27:03;;;;;;;4.43;1.80;;;;;;;19.67;59.48;101941.78;4935898;29;20053;-81
2022/07/04 08:29:32;;;;;;;2.92;2.05;;;;;;;19.69;59.95;101945.13;4935314;29;20078;-82
2022/07/04 08:31:57;;;;;;;4.88;1.80;;;;;;;19.78;57.88;101942.81;4935703;29;20042;-81
2022/07/04 08:34:22;;;;;;;3.85;1.83;;;;;;;20.02;59.49;101943.53;4935445;29;20047;-84
2022/07/04 08:36:48;;;;;;;5.63;2.10;;;;;;;20.39;58.20;101942.22;4935901;29;20046;-82
2022/07/04 08:39:13;;;;;;;5.88;2.00;;;;;;;20.45;57.27;101946.69;4936212;29;20118;-80
2022/07/04 08:41:40;;;;;;;5.10;1.83;;;;;;;20.64;58.10;101950.00;4938729;29;20041;-80
2022/07/04 08:44:10;;;;;;;4.95;1.80;;;;;;;20.82;57.99;101950.84;4940080;28;20119;-82
2022/07/04 08:46:39;;;;;;;4.68;1.90;;;;;;;21.11;57.22;101946.00;4944294;29;20150;-82
2022/07/04 08:49:13;;;;;;;4.78;1.80;;;;;;;21.16;55.83;101948.84;4926027;29;20027;-81
2022/07/04 08:51:58;;;;;;;7.10;2.30;;;;;;;21.39;56.33;101941.38;4939564;29;20244;-81
2022/07/04 08:59:55;;;;;;;7.32;2.40;;;;;;;21.67;53.73;101942.25;4953266;29;20131;-80
2022/07/04 09:02:23;;;;;;;6.30;2.40;;;;;;;21.89;54.85;101948.53;4951573;29;20460;-81
2022/07/04 09:04:49;;;;;;;5.25;2.08;;;;;;;21.94;54.07;101961.56;4936842;29;20031;-81
2022/07/04 09:07:15;;;;;;;3.83;2.00;;;;;;;22.00;51.91;101954.16;4951369;29;20082;-81
2022/07/04 09:09:42;;;;;;;3.55;1.83;;;;;;;22.04;51.85;101955.28;4947251;29;20483;-80
2022/07/04 09:12:08;;;;;;;5.97;2.20;;;;;;;22.17;52.11;101954.03;4952950;29;20122;-84
2022/07/04 09:14:34;;;;;;;4.70;2.00;;;;;;;22.05;52.31;101949.50;4942363;29;20039;-80
2022/07/04 09:17:00;;;;;;;7.75;2.10;;;;;;;22.23;51.80;101953.78;4947527;29;20074;-80
2022/07/04 09:19:25;;;;;;;6.05;1.90;;;;;;;22.61;50.24;101956.59;4955053;29;20046;-80
2022/07/04 09:21:51;;;;;;;4.43;1.85;;;;;;;22.57;49.97;101958.22;4938116;29;20482;-81
2022/07/04 09:24:45;;;;;;;4.93;2.30;;;;;;;22.90;52.23;101956.19;4934699;29;20043;-82
2022/07/04 09:27:33;;;;;;;4.43;2.00;;;;;;;23.01;51.69;101963.47;4937402;29;20410;-80
2022/07/04 09:29:59;;;;;;;4.93;2.08;;;;;;;23.07;48.47;101961.53;4945869;28;20031;-82
2022/07/04 09:32:37;;;;;;;5.80;2.03;;;;;;;23.24;51.17;101967.75;4954578;29;20038;-80
2022/07/04 09:35:05;;;;;;;6.68;2.13;;;;;;;23.27;48.60;101960.84;4955304;28;20085;-81
2022/07/04 09:37:38;;;;;;;4.55;2.15;;;;;;;23.40;48.81;101960.31;4959074;28;20041;-82
2022/07/04 09:40:05;;;;;;;4.20;1.97;;;;;;;23.16;47.93;101950.81;4958059;28;20050;-81
2022/07/04 09:42:38;;;;;;;5.88;1.92;;;;;;;23.19;48.52;101948.34;4944574;29;20467;-80
2022/07/04 09:45:10;;;;;;;4.72;1.92;;;;;;;23.46;48.56;101957.56;4960168;28;20042;-82
2022/07/04 09:47:36;;;;;;;5.70;1.85;;;;;;;23.30;47.59;101952.00;4958691;29;20039;-80
2022/07/04 09:50:14;;;;;;;6.43;2.13;;;;;;;23.60;48.92;101950.41;4957211;28;20023;-81
2022/07/04 09:52:53;;;;;;;4.95;2.10;;;;;;;23.86;48.86;101939.38;4959233;28;20044;-80
2022/07/04 09:55:31;;;;;;;5.32;1.88;;;;;;;23.81;48.72;101947.69;4942116;29;20436;-81
2022/07/04 09:58:02;;;;;;;6.50;1.90;;;;;;;23.81;47.01;101947.69;4955366;28;20027;-80
2022/07/04 10:00:39;;;;;;;6.05;2.30;;;;;;;23.56;49.42;101946.53;4943380;29;20110;-80
2022/07/04 10:03:22;;;;;;;5.53;2.53;;;;;;;23.88;49.54;101946.34;4957107;28;20055;-80
2022/07/04 10:06:03;;;;;;;4.20;2.20;;;;;;;23.58;47.74;101945.16;4961701;29;20078;-81
2022/07/04 10:08:29;;;;;;;4.35;2.08;;;;;;;23.50;49.43;101942.94;4943244;29;20043;-80
2022/07/04 10:10:59;;;;;;;5.63;2.10;;;;;;;23.75;47.46;101942.13;4957960;28;20119;-81
2022/07/04 10:13:24;;;;;;;2.65;1.80;;;;;;;23.57;46.49;101949.03;4956708;29;20023;-80
2022/07/04 10:15:50;;;;;;;5.85;2.10;;;;;;;23.02;47.36;101936.63;4961142;29;20035;-80
2022/07/04 10:18:18;;;;;;;4.40;1.90;;;;;;;22.73;49.18;101937.88;4959550;29;20066;-81
2022/07/04 10:20:44;;;;;;;6.53;2.20;;;;;;;22.66;48.36;101936.47;4956635;29;20063;-81
2022/07/04 10:23:10;;;;;;;3.83;1.92;;;;;;;22.34;50.73;101929.88;4959909;29;20371;-80
2022/07/04 10:25:36;;;;;;;4.57;1.77;;;;;;;22.31;50.50;101921.28;4961491;29;20037;-81
2022/07/04 10:28:01;;;;;;;4.93;2.15;;;;;;;22.37;50.52;101926.63;4950983;29;20030;-82
2022/07/04 10:30:33;;;;;;;4.85;2.20;;;;;;;22.68;50.90;101915.75;4952001;29;20519;-81
2022/07/04 10:33:01;;;;;;;5.45;2.03;;;;;;;23.02;52.53;101915.34;4957974;28;20027;-80
2022/07/04 10:35:55;;;;;;;4.38;2.05;;;;;;;23.52;49.51;101921.34;4954029;29;20063;-81
2022/07/04 10:38:27;;;;;;;8.15;2.38;;;;;;;23.35;49.36;101906.91;4945835;29;20095;-80
2022/07/04 10:40:59;;;;;;;6.80;2.50;;;;;;;23.37;50.11;101918.56;4957312;29;20074;-80
2022/07/04 10:43:31;;;;;;;5.70;2.20;;;;;;;23.22;48.94;101925.69;4946656;28;20534;-82
2022/07/04 10:46:19;;;;;;;7.63;2.55;;;;;;;22.86;50.21;101920.00;4955209;29;20488;-82
2022/07/04 10:49:01;;;;;;;4.53;2.35;;;;;;;22.73;50.39;101912.19;4957944;29;20109;-79
2022/07/04 10:51:41;;;;;;;10.23;2.50;;;;;;;22.64;50.13;101905.50;4940195;29;20031;-80
2022/07/04 10:54:09;;;;;;;5.85;2.33;;;;;;;22.56;49.49;101904.06;4939311;29;20031;-80
2022/07/04 10:56:39;;;;;;;5.43;2.20;;;;;;;22.43;48.65;101903.44;4949155;29;20034;-80
2022/07/04 10:59:13;;;;;;;5.47;2.17;;;;;;;22.26;49.69;101914.63;4952530;29;20035;-80
2022/07/04 11:01:44;;;;;;;7.15;2.53;;;;;;;21.95;49.87;101913.56;4932654;29;20034;-80
2022/07/04 11:04:10;;;;;;;7.63;2.42;;;;;;;21.63;54.92;101911.59;4953762;29;20034;-80
2022/07/04 11:06:36;;;;;;;7.80;2.92;;;;;;;21.52;56.50;101904.28;4950782;28;20367;-80
2022/07/04 11:09:20;;;;;;;8.50;3.13;;;;;;;21.47;54.86;101907.81;4950901;29;20118;-80
2022/07/04 11:11:55;;;;;;;8.50;4.03;;;;;;;21.27;56.49;101907.59;4949666;29;20038;-79
2022/07/04 11:14:48;;;;;;;9.20;3.90;;;;;;;21.10;58.16;101894.72;4934330;29;20358;-80
2022/07/04 11:17:21;;;;;;;9.00;4.00;;;;;;;21.00;57.75;101908.41;4936726;29;20155;-80
2022/07/04 11:19:47;;;;;;;9.82;4.25;;;;;;;20.76;57.12;101900.38;4936952;29;20042;-81
2022/07/04 11:22:22;;;;;;;9.20;4.18;;;;;;;20.81;58.40;101916.16;4936817;29;20497;-81
2022/07/04 11:24:48;;;;;;;7.25;3.90;;;;;;;20.70;58.66;101916.00;4937217;29;20042;-83
2022/07/04 11:27:13;;;;;;;10.43;4.65;;;;;;;20.63;57.40;101915.31;4936693;29;20036;-81
2022/07/04 11:29:57;;;;;;;9.52;4.63;;;;;;;20.50;58.78;101915.69;4937033;29;20067;-82
2022/07/04 11:32:33;;;;;;;11.30;5.05;;;;;;;20.44;59.92;101901.00;4948884;29;21942;-79
2022/07/04 11:34:58;;;;;;;12.77;5.30;;;;;;;20.47;60.11;101906.00;4933741;29;20463;-79
2022/07/04 11:37:24;;;;;;;11.18;5.60;;;;;;;20.57;61.74;101908.06;4928119;29;20135;-80
2022/07/04 11:45:24;;;;;;;13.32;5.65;;;;;;;21.35;61.31;101893.34;4956080;29;20050;-80